Time,TemperatureF,DewpointF,PressureIn,WindDirection,WindDirectionDegrees,WindSpeedMPH,WindSpeedGustMPH,Humidity,HourlyPrecipIn,Conditions,Clouds,dailyrainin,SoftwareType,DateUTC
2013-04-21 00:02:00,72.7,63.1,30.04,East,81,1.0,4.0,72,0.00,,,0.00,meteohub,2013-04-21 10:02:00,
2013-04-21 00:07:00,72.7,63.1,30.04,East,81,1.0,4.0,72,0.00,,,0.00,meteohub,2013-04-21 10:07:00,
2013-04-21 00:12:00,72.7,63.5,30.04,ENE,70,1.0,3.0,73,0.00,,,0.00,meteohub,2013-04-21 10:12:00,
2013-04-21 00:17:00,72.7,63.5,30.04,ENE,73,2.0,3.0,73,0.00,,,0.00,meteohub,2013-04-21 10:17:00,
2013-04-21 00:22:00,72.7,63.5,30.04,East,82,0.0,4.0,73,0.00,,,0.00,meteohub,2013-04-21 10:22:00,
2013-04-21 00:27:00,72.7,63.5,30.04,ENE,68,0.0,4.0,73,0.00,,,0.00,meteohub,2013-04-21 10:27:00,
2013-04-21 00:32:00,72.7,63.5,30.04,East,95,0.0,3.0,73,0.00,,,0.00,meteohub,2013-04-21 10:32:00,
2013-04-21 00:37:00,72.9,64.0,30.04,ESE,113,1.0,2.0,74,0.00,,,0.00,meteohub,2013-04-21 10:37:00,
2013-04-21 00:42:00,72.9,64.0,30.04,East,86,0.0,2.0,74,0.00,,,0.00,meteohub,2013-04-21 10:42:00,
2013-04-21 00:47:00,73.0,64.2,30.03,East,96,0.0,2.0,74,0.00,,,0.00,meteohub,2013-04-21 10:47:00,
2013-04-21 00:52:00,73.0,64.2,30.03,ENE,70,0.0,2.0,74,0.00,,,0.00,meteohub,2013-04-21 10:52:00,
2013-04-21 00:57:00,73.2,64.4,30.03,ENE,70,0.0,2.0,74,0.00,,,0.00,meteohub,2013-04-21 10:57:00,
2013-04-21 01:02:00,73.2,64.4,30.03,ENE,69,1.0,2.0,74,0.00,,,0.00,meteohub,2013-04-21 11:02:00,
2013-04-21 01:07:00,73.4,64.6,30.02,ENE,69,0.0,2.0,74,0.00,,,0.00,meteohub,2013-04-21 11:07:00,
2013-04-21 01:12:00,73.2,64.4,30.02,ENE,69,0.0,1.0,74,0.00,,,0.00,meteohub,2013-04-21 11:12:00,
2013-04-21 01:17:00,73.0,64.2,30.02,East,101,0.0,1.0,74,0.00,,,0.00,meteohub,2013-04-21 11:17:00,
2013-04-21 01:22:00,72.9,64.0,30.02,ESE,104,1.0,1.0,74,0.00,,,0.00,meteohub,2013-04-21 11:22:00,
2013-04-21 01:27:00,72.7,63.9,30.01,ESE,103,1.0,1.0,74,0.00,,,0.00,meteohub,2013-04-21 11:27:00,
2013-04-21 01:32:00,72.7,63.9,30.01,ESE,103,1.0,1.0,74,0.00,,,0.00,meteohub,2013-04-21 11:32:00,
2013-04-21 01:37:00,72.5,63.7,30.01,East,91,1.0,1.0,74,0.00,,,0.00,meteohub,2013-04-21 11:37:00,
2013-04-21 01:42:00,72.3,63.5,30.01,East,84,0.0,2.0,74,0.00,,,0.00,meteohub,2013-04-21 11:42:00,
2013-04-21 01:47:00,72.1,63.3,30.00,East,85,0.0,2.0,74,0.00,,,0.00,meteohub,2013-04-21 11:47:00,
2013-04-21 01:52:00,72.0,63.1,30.00,East,85,1.0,2.0,74,0.00,,,0.00,meteohub,2013-04-21 11:52:00,
2013-04-21 01:57:00,71.8,63.0,30.00,East,84,1.0,1.0,74,0.00,,,0.00,meteohub,2013-04-21 11:57:00,
2013-04-21 02:02:00,71.6,63.0,30.00,East,85,1.0,1.0,74,0.00,,,0.00,meteohub,2013-04-21 12:02:00,
2013-04-21 02:07:00,71.4,62.8,30.00,East,85,1.0,1.0,74,0.00,,,0.00,meteohub,2013-04-21 12:07:00,
2013-04-21 02:12:00,71.2,62.6,29.99,East,96,2.0,2.0,74,0.00,,,0.00,meteohub,2013-04-21 12:12:00,
2013-04-21 02:17:00,71.1,62.4,29.99,East,85,0.0,2.0,74,0.00,,,0.00,meteohub,2013-04-21 12:17:00,
2013-04-21 02:22:00,70.9,61.9,29.99,ESE,105,2.0,2.0,73,0.00,,,0.00,meteohub,2013-04-21 12:22:00,
2013-04-21 02:27:00,70.7,61.7,29.99,East,92,2.0,2.0,73,0.00,,,0.00,meteohub,2013-04-21 12:27:00,
2013-04-21 02:32:00,70.5,61.5,29.99,ENE,77,1.0,3.0,73,0.00,,,0.00,meteohub,2013-04-21 12:32:00,
2013-04-21 02:37:00,70.5,61.5,29.99,ENE,70,2.0,3.0,73,0.00,,,0.00,meteohub,2013-04-21 12:37:00,
2013-04-21 02:42:00,70.3,60.8,29.98,ENE,74,2.0,3.0,72,0.00,,,0.00,meteohub,2013-04-21 12:42:00,
2013-04-21 02:47:00,70.2,60.6,29.98,ENE,68,2.0,3.0,72,0.00,,,0.00,meteohub,2013-04-21 12:47:00,
2013-04-21 02:52:00,70.2,60.6,29.98,ENE,72,2.0,3.0,72,0.00,,,0.00,meteohub,2013-04-21 12:52:00,
2013-04-21 02:57:00,70.0,60.6,29.98,East,84,2.0,3.0,72,0.00,,,0.00,meteohub,2013-04-21 12:57:00,
2013-04-21 03:02:00,69.6,60.6,29.98,East,80,2.0,3.0,73,0.00,,,0.00,meteohub,2013-04-21 13:02:00,
2013-04-21 03:07:00,69.6,60.6,29.98,East,84,2.0,3.0,73,0.00,,,0.00,meteohub,2013-04-21 13:07:00,
2013-04-21 03:12:00,70.0,61.3,29.98,ENE,71,2.0,3.0,74,0.00,,,0.00,meteohub,2013-04-21 13:12:00,
2013-04-21 03:17:00,70.2,61.5,29.98,ENE,68,2.0,3.0,74,0.00,,,0.00,meteohub,2013-04-21 13:17:00,
2013-04-21 03:22:00,70.3,61.7,29.99,East,87,2.0,3.0,74,0.00,,,0.00,meteohub,2013-04-21 13:22:00,
2013-04-21 03:27:00,70.3,62.1,29.98,East,94,2.0,3.0,75,0.00,,,0.00,meteohub,2013-04-21 13:27:00,
2013-04-21 03:32:00,70.3,62.1,29.99,East,85,2.0,3.0,75,0.00,,,0.00,meteohub,2013-04-21 13:32:00,
2013-04-21 03:37:00,70.3,62.1,29.99,East,80,3.0,3.0,75,0.00,,,0.00,meteohub,2013-04-21 13:37:00,
2013-04-21 03:42:00,70.3,62.1,29.99,East,86,2.0,3.0,75,0.00,,,0.00,meteohub,2013-04-21 13:42:00,
2013-04-21 03:47:00,70.3,62.1,29.99,East,92,2.0,3.0,75,0.00,,,0.00,meteohub,2013-04-21 13:47:00,
2013-04-21 03:52:00,70.2,61.9,29.99,East,94,2.0,3.0,75,0.00,,,0.00,meteohub,2013-04-21 13:52:00,
2013-04-21 03:57:00,70.2,61.9,29.99,East,94,1.0,3.0,75,0.00,,,0.00,meteohub,2013-04-21 13:57:00,
2013-04-21 04:02:00,70.0,61.7,29.99,East,99,2.0,3.0,75,0.00,,,0.00,meteohub,2013-04-21 14:02:00,
2013-04-21 04:07:00,70.2,62.2,29.99,ESE,105,2.0,3.0,76,0.00,,,0.00,meteohub,2013-04-21 14:07:00,
2013-04-21 04:12:00,70.2,62.2,29.99,East,93,1.0,3.0,76,0.00,,,0.00,meteohub,2013-04-21 14:12:00,
2013-04-21 04:17:00,70.3,62.4,29.99,East,86,1.0,3.0,76,0.00,,,0.00,meteohub,2013-04-21 14:17:00,
2013-04-21 04:22:00,70.2,62.2,29.99,East,83,1.0,3.0,76,0.00,,,0.00,meteohub,2013-04-21 14:22:00,
2013-04-21 04:27:00,70.2,62.2,29.98,ENE,72,3.0,3.0,76,0.00,,,0.00,meteohub,2013-04-21 14:27:00,
2013-04-21 04:32:00,70.2,61.9,29.98,ENE,71,2.0,3.0,75,0.00,,,0.00,meteohub,2013-04-21 14:32:00,
2013-04-21 04:37:00,70.0,61.7,29.98,East,82,2.0,3.0,75,0.00,,,0.00,meteohub,2013-04-21 14:37:00,
2013-04-21 04:42:00,70.0,61.7,29.99,ENE,78,2.0,3.0,75,0.00,,,0.00,meteohub,2013-04-21 14:42:00,
2013-04-21 04:47:00,69.6,61.3,29.99,East,82,2.0,2.0,75,0.00,,,0.00,meteohub,2013-04-21 14:47:00,
2013-04-21 04:52:00,69.6,61.3,29.99,East,81,3.0,3.0,75,0.00,,,0.00,meteohub,2013-04-21 14:52:00,
2013-04-21 04:57:00,69.4,61.2,29.99,East,87,2.0,3.0,75,0.00,,,0.00,meteohub,2013-04-21 14:57:00,
2013-04-21 05:02:00,69.3,61.0,29.99,East,86,2.0,3.0,75,0.00,,,0.00,meteohub,2013-04-21 15:02:00,
2013-04-21 05:07:00,69.3,61.0,29.99,ENE,77,3.0,3.0,75,0.00,,,0.00,meteohub,2013-04-21 15:07:00,
2013-04-21 05:12:00,69.3,61.0,29.99,East,86,2.0,3.0,75,0.00,,,0.00,meteohub,2013-04-21 15:12:00,
2013-04-21 05:17:00,69.3,61.0,29.99,East,84,2.0,3.0,75,0.00,,,0.00,meteohub,2013-04-21 15:17:00,
2013-04-21 05:22:00,69.3,60.6,29.99,East,90,3.0,3.0,74,0.00,,,0.00,meteohub,2013-04-21 15:22:00,
2013-04-21 05:27:00,69.3,60.6,29.99,East,86,2.0,3.0,74,0.00,,,0.00,meteohub,2013-04-21 15:27:00,
2013-04-21 05:32:00,69.3,61.0,29.99,East,81,2.0,3.0,75,0.00,,,0.00,meteohub,2013-04-21 15:32:00,
2013-04-21 05:37:00,69.4,61.2,29.99,East,94,3.0,3.0,75,0.00,,,0.00,meteohub,2013-04-21 15:37:00,
2013-04-21 05:42:00,69.6,61.3,29.99,East,80,2.0,4.0,75,0.00,,,0.00,meteohub,2013-04-21 15:42:00,
2013-04-21 05:47:00,69.6,61.0,29.99,East,89,2.0,4.0,74,0.00,,,0.00,meteohub,2013-04-21 15:47:00,
2013-04-21 05:52:00,69.6,61.0,30.00,East,94,2.0,4.0,74,0.00,,,0.00,meteohub,2013-04-21 15:52:00,
2013-04-21 05:57:00,69.8,61.5,30.00,East,82,2.0,4.0,75,0.00,,,0.00,meteohub,2013-04-21 15:57:00,
2013-04-21 06:02:00,69.8,61.2,30.00,ENE,65,2.0,4.0,74,0.00,,,0.00,meteohub,2013-04-21 16:02:00,
2013-04-21 06:07:00,69.8,61.2,30.00,East,94,4.0,4.0,74,0.00,,,0.00,meteohub,2013-04-21 16:07:00,
2013-04-21 06:12:00,69.6,61.0,30.00,East,101,2.0,4.0,74,0.00,,,0.00,meteohub,2013-04-21 16:12:00,
2013-04-21 06:17:00,69.6,61.3,30.00,East,82,2.0,4.0,75,0.00,,,0.00,meteohub,2013-04-21 16:17:00,
2013-04-21 06:22:00,69.6,61.3,30.00,East,91,2.0,4.0,75,0.00,,,0.00,meteohub,2013-04-21 16:22:00,
2013-04-21 06:27:00,69.6,61.3,30.00,East,90,2.0,3.0,75,0.00,,,0.00,meteohub,2013-04-21 16:27:00,
2013-04-21 06:32:00,69.8,61.5,30.00,East,98,2.0,3.0,75,0.00,,,0.00,meteohub,2013-04-21 16:32:00,
2013-04-21 06:37:00,70.0,61.7,30.01,ESE,110,1.0,3.0,75,0.00,,,0.00,meteohub,2013-04-21 16:37:00,
2013-04-21 06:42:00,70.2,61.9,30.01,ESE,108,1.0,3.0,75,0.00,,,0.00,meteohub,2013-04-21 16:42:00,
2013-04-21 06:47:00,70.5,62.6,30.01,ESE,120,2.0,2.0,76,0.00,,,0.00,meteohub,2013-04-21 16:47:00,
2013-04-21 06:52:00,71.1,62.8,30.01,East,88,2.0,3.0,75,0.00,,,0.00,meteohub,2013-04-21 16:52:00,
2013-04-21 06:57:00,71.8,63.5,30.01,East,86,1.0,3.0,75,0.00,,,0.00,meteohub,2013-04-21 16:57:00,
2013-04-21 07:02:00,72.3,63.5,30.01,ESE,110,1.0,3.0,74,0.00,,,0.00,meteohub,2013-04-21 17:02:00,
2013-04-21 07:07:00,73.0,63.9,30.01,ESE,122,0.0,2.0,73,0.00,,,0.00,meteohub,2013-04-21 17:07:00,
2013-04-21 07:12:00,73.8,64.6,30.02,ESE,123,0.0,2.0,73,0.00,,,0.00,meteohub,2013-04-21 17:12:00,
2013-04-21 07:17:00,74.5,64.9,30.02,ESE,123,0.0,1.0,72,0.00,,,0.00,meteohub,2013-04-21 17:17:00,
2013-04-21 07:22:00,75.4,65.3,30.02,ESE,123,0.0,1.0,71,0.00,,,0.00,meteohub,2013-04-21 17:22:00,
2013-04-21 07:27:00,76.1,65.7,30.02,SE,127,0.0,1.0,70,0.00,,,0.00,meteohub,2013-04-21 17:27:00,
2013-04-21 07:32:00,76.5,65.5,30.03,SE,127,0.0,1.0,69,0.00,,,0.00,meteohub,2013-04-21 17:32:00,
2013-04-21 07:37:00,77.2,66.6,30.03,SE,127,0.0,1.0,70,0.00,,,0.00,meteohub,2013-04-21 17:37:00,
2013-04-21 07:42:00,78.1,66.2,30.03,SE,127,0.0,1.0,67,0.00,,,0.00,meteohub,2013-04-21 17:42:00,
2013-04-21 07:47:00,77.2,65.3,30.03,SE,127,0.0,1.0,67,0.00,,,0.00,meteohub,2013-04-21 17:47:00,
2013-04-21 07:52:00,76.5,65.1,30.03,NW,323,0.0,1.0,68,0.00,,,0.00,meteohub,2013-04-21 17:52:00,
2013-04-21 07:57:00,76.1,65.1,30.03,NW,309,0.0,1.0,69,0.00,,,0.00,meteohub,2013-04-21 17:57:00,
2013-04-21 08:02:00,76.1,65.7,30.04,WNW,290,0.0,1.0,70,0.00,,,0.00,meteohub,2013-04-21 18:02:00,
2013-04-21 08:07:00,76.3,64.6,30.03,WSW,239,1.0,1.0,67,0.00,,,0.00,meteohub,2013-04-21 18:07:00,
2013-04-21 08:12:00,76.5,64.2,30.04,West,269,0.0,2.0,66,0.00,,,0.00,meteohub,2013-04-21 18:12:00,
2013-04-21 08:17:00,76.8,64.6,30.04,WSW,242,0.0,2.0,66,0.00,,,0.00,meteohub,2013-04-21 18:17:00,
2013-04-21 08:22:00,78.1,65.3,30.03,NNW,339,0.0,2.0,65,0.00,,,0.00,meteohub,2013-04-21 18:22:00,
2013-04-21 08:27:00,77.7,65.5,30.03,NW,309,0.0,2.0,66,0.00,,,0.00,meteohub,2013-04-21 18:27:00,
2013-04-21 08:32:00,78.3,66.0,30.03,ESE,112,0.0,2.0,66,0.00,,,0.00,meteohub,2013-04-21 18:32:00,
2013-04-21 08:37:00,78.6,65.5,30.03,WSW,239,3.0,3.0,64,0.00,,,0.00,meteohub,2013-04-21 18:37:00,
2013-04-21 08:42:00,77.7,65.5,30.04,WNW,292,4.0,4.0,66,0.00,,,0.00,meteohub,2013-04-21 18:42:00,
2013-04-21 08:47:00,77.4,65.1,30.03,West,263,2.0,5.0,66,0.00,,,0.00,meteohub,2013-04-21 18:47:00,
2013-04-21 08:52:00,77.0,64.8,30.04,WNW,285,4.0,6.0,66,0.00,,,0.00,meteohub,2013-04-21 18:52:00,
2013-04-21 08:57:00,76.6,65.3,30.04,West,270,4.0,7.0,68,0.00,,,0.00,meteohub,2013-04-21 18:57:00,
2013-04-21 09:02:00,76.6,65.3,30.04,WNW,285,3.0,7.0,68,0.00,,,0.00,meteohub,2013-04-21 19:02:00,
2013-04-21 09:07:00,76.6,65.7,30.04,WNW,285,5.0,7.0,69,0.00,,,0.00,meteohub,2013-04-21 19:07:00,
2013-04-21 09:12:00,76.6,65.7,30.04,WNW,294,4.0,6.0,69,0.00,,,0.00,meteohub,2013-04-21 19:12:00,
2013-04-21 09:17:00,76.6,65.3,30.04,WNW,290,4.0,6.0,68,0.00,,,0.00,meteohub,2013-04-21 19:17:00,
2013-04-21 09:22:00,76.6,66.2,30.04,NW,310,4.0,6.0,70,0.00,,,0.00,meteohub,2013-04-21 19:22:00,
2013-04-21 09:27:00,76.6,66.2,30.04,WNW,293,3.0,7.0,70,0.00,,,0.00,meteohub,2013-04-21 19:27:00,
2013-04-21 09:32:00,76.5,66.0,30.04,WSW,255,0.0,7.0,70,0.00,,,0.00,meteohub,2013-04-21 19:32:00,
2013-04-21 09:37:00,76.8,66.2,30.04,WSW,253,6.0,6.0,70,0.00,,,0.00,meteohub,2013-04-21 19:37:00,
2013-04-21 09:42:00,76.6,66.2,30.04,SW,236,3.0,7.0,70,0.00,,,0.00,meteohub,2013-04-21 19:42:00,
2013-04-21 09:47:00,77.2,66.2,30.04,WNW,292,3.0,7.0,69,0.00,,,0.00,meteohub,2013-04-21 19:47:00,
2013-04-21 09:52:00,77.4,66.7,30.04,WSW,240,6.0,7.0,70,0.00,,,0.00,meteohub,2013-04-21 19:52:00,
2013-04-21 09:57:00,77.4,66.4,30.04,WSW,238,4.0,6.0,69,0.00,,,0.00,meteohub,2013-04-21 19:57:00,
2013-04-21 10:02:00,77.5,66.9,30.04,WSW,239,3.0,8.0,70,0.00,,,0.00,meteohub,2013-04-21 20:02:00,
2013-04-21 10:07:00,77.7,66.4,30.04,WSW,243,5.0,8.0,68,0.00,,,0.00,meteohub,2013-04-21 20:07:00,
2013-04-21 10:12:00,77.5,66.2,30.04,West,281,3.0,9.0,68,0.00,,,0.00,meteohub,2013-04-21 20:12:00,
2013-04-21 10:17:00,77.4,66.0,30.04,SW,218,5.0,10.0,68,0.00,,,0.00,meteohub,2013-04-21 20:17:00,
2013-04-21 10:22:00,77.0,66.0,30.04,WSW,252,5.0,10.0,69,0.00,,,0.00,meteohub,2013-04-21 20:22:00,
2013-04-21 10:27:00,76.8,65.8,30.04,West,270,5.0,9.0,69,0.00,,,0.00,meteohub,2013-04-21 20:27:00,
2013-04-21 10:32:00,77.0,66.4,30.04,WNW,290,4.0,9.0,70,0.00,,,0.00,meteohub,2013-04-21 20:32:00,
2013-04-21 10:37:00,77.0,66.4,30.04,SW,225,2.0,9.0,70,0.00,,,0.00,meteohub,2013-04-21 20:37:00,
2013-04-21 10:42:00,77.2,67.1,30.04,WSW,238,4.0,7.0,71,0.00,,,0.00,meteohub,2013-04-21 20:42:00,
2013-04-21 10:47:00,77.4,66.7,30.04,SSW,201,2.0,8.0,70,0.00,,,0.00,meteohub,2013-04-21 20:47:00,
2013-04-21 10:52:00,77.2,67.1,30.04,WSW,255,6.0,8.0,71,0.00,,,0.00,meteohub,2013-04-21 20:52:00,
2013-04-21 10:57:00,76.8,67.1,30.04,WSW,253,5.0,8.0,72,0.00,,,0.00,meteohub,2013-04-21 20:57:00,
2013-04-21 11:02:00,76.8,67.1,30.04,WSW,238,4.0,9.0,72,0.00,,,0.00,meteohub,2013-04-21 21:02:00,
2013-04-21 11:07:00,77.4,67.6,30.04,West,276,6.0,9.0,72,0.00,,,0.00,meteohub,2013-04-21 21:07:00,
2013-04-21 11:12:00,77.5,67.5,30.03,WSW,238,4.0,9.0,71,0.00,,,0.00,meteohub,2013-04-21 21:12:00,
2013-04-21 11:17:00,77.9,67.8,30.03,WNW,290,4.0,8.0,71,0.00,,,0.00,meteohub,2013-04-21 21:17:00,
2013-04-21 11:22:00,78.3,68.0,30.03,WNW,283,3.0,8.0,71,0.00,,,0.00,meteohub,2013-04-21 21:22:00,
2013-04-21 11:27:00,78.6,68.4,30.03,West,263,8.0,9.0,71,0.00,,,0.00,meteohub,2013-04-21 21:27:00,
2013-04-21 11:32:00,78.4,68.2,30.03,West,266,4.0,9.0,71,0.00,,,0.00,meteohub,2013-04-21 21:32:00,
2013-04-21 11:37:00,78.1,67.8,30.03,WSW,255,4.0,10.0,71,0.00,,,0.00,meteohub,2013-04-21 21:37:00,
2013-04-21 11:42:00,78.3,69.3,30.03,WSW,255,6.0,10.0,74,0.00,,,0.00,meteohub,2013-04-21 21:42:00,
2013-04-21 11:47:00,78.6,69.3,30.03,WNW,283,4.0,10.0,73,0.00,,,0.00,meteohub,2013-04-21 21:47:00,
2013-04-21 11:52:00,78.6,68.9,30.03,SSW,210,3.0,9.0,72,0.00,,,0.00,meteohub,2013-04-21 21:52:00,
2013-04-21 11:57:00,78.8,69.8,30.02,NW,308,6.0,9.0,74,0.00,,,0.00,meteohub,2013-04-21 21:57:00,
2013-04-21 12:02:00,78.4,69.1,30.02,SSW,193,1.0,9.0,73,0.00,,,0.00,meteohub,2013-04-21 22:02:00,
2013-04-21 12:07:00,78.6,69.6,30.02,West,273,3.0,10.0,74,0.00,,,0.00,meteohub,2013-04-21 22:07:00,
2013-04-21 12:12:00,78.4,69.1,30.02,WSW,239,4.0,10.0,73,0.00,,,0.00,meteohub,2013-04-21 22:12:00,
2013-04-21 12:17:00,78.6,69.3,30.02,WSW,245,7.0,10.0,73,0.00,,,0.00,meteohub,2013-04-21 22:17:00,
2013-04-21 12:22:00,79.0,69.6,30.02,WSW,256,8.0,9.0,73,0.00,,,0.00,meteohub,2013-04-21 22:22:00,
2013-04-21 12:27:00,79.3,70.0,30.02,WSW,250,6.0,10.0,73,0.00,,,0.00,meteohub,2013-04-21 22:27:00,
2013-04-21 12:32:00,78.4,68.7,30.01,West,274,4.0,10.0,72,0.00,,,0.00,meteohub,2013-04-21 22:32:00,
2013-04-21 12:37:00,78.6,69.3,30.01,WSW,249,6.0,11.0,73,0.00,,,0.00,meteohub,2013-04-21 22:37:00,
2013-04-21 12:42:00,78.6,69.6,30.01,SW,233,5.0,11.0,74,0.00,,,0.00,meteohub,2013-04-21 22:42:00,
2013-04-21 12:47:00,78.4,69.4,30.01,West,274,6.0,11.0,74,0.00,,,0.00,meteohub,2013-04-21 22:47:00,
2013-04-21 12:52:00,78.6,69.6,30.01,SSE,165,3.0,11.0,74,0.00,,,0.00,meteohub,2013-04-21 22:52:00,
2013-04-21 12:57:00,78.8,69.1,30.00,West,271,3.0,10.0,72,0.00,,,0.00,meteohub,2013-04-21 22:57:00,
2013-04-21 13:02:00,78.6,69.6,30.00,WSW,245,3.0,9.0,74,0.00,,,0.00,meteohub,2013-04-21 23:02:00,
2013-04-21 13:07:00,78.8,69.1,30.00,SSW,208,6.0,12.0,72,0.00,,,0.00,meteohub,2013-04-21 23:07:00,
2013-04-21 13:12:00,78.6,69.3,29.99,WSW,251,6.0,12.0,73,0.00,,,0.00,meteohub,2013-04-21 23:12:00,
2013-04-21 13:17:00,78.4,69.4,29.99,West,271,1.0,8.0,74,0.00,,,0.00,meteohub,2013-04-21 23:17:00,
2013-04-21 13:22:00,79.0,69.3,29.99,WSW,250,9.0,9.0,72,0.00,,,0.00,meteohub,2013-04-21 23:22:00,
2013-04-21 13:27:00,78.8,69.4,29.98,SSW,201,5.0,10.0,73,0.00,,,0.00,meteohub,2013-04-21 23:27:00,
2013-04-21 13:32:00,79.2,69.8,29.98,West,264,5.0,10.0,73,0.00,,,0.00,meteohub,2013-04-21 23:32:00,
2013-04-21 13:37:00,79.0,69.6,29.98,WNW,285,4.0,10.0,73,0.00,,,0.00,meteohub,2013-04-21 23:37:00,
2013-04-21 13:42:00,79.2,69.3,29.98,WNW,291,5.0,9.0,72,0.00,,,0.00,meteohub,2013-04-21 23:42:00,
2013-04-21 13:47:00,78.8,69.1,29.98,WNW,300,4.0,9.0,72,0.00,,,0.00,meteohub,2013-04-21 23:47:00,
2013-04-21 13:52:00,78.4,69.4,29.98,WNW,289,7.0,10.0,74,0.00,,,0.00,meteohub,2013-04-21 23:52:00,
2013-04-21 13:57:00,78.4,70.2,29.98,WNW,285,6.0,10.0,76,0.00,,,0.00,meteohub,2013-04-21 23:57:00,
2013-04-21 14:02:00,78.4,69.1,29.98,West,278,8.0,9.0,73,0.00,,,0.00,meteohub,2013-04-22 00:02:00,
2013-04-21 14:07:00,78.1,69.4,29.98,NW,307,8.0,9.0,75,0.00,,,0.00,meteohub,2013-04-22 00:07:00,
2013-04-21 14:12:00,78.3,69.6,29.97,NW,311,5.0,10.0,75,0.00,,,0.00,meteohub,2013-04-22 00:12:00,
2013-04-21 14:17:00,78.3,69.6,29.97,West,276,4.0,10.0,75,0.00,,,0.00,meteohub,2013-04-22 00:17:00,
2013-04-21 14:22:00,78.1,69.4,29.97,WNW,285,3.0,10.0,75,0.00,,,0.00,meteohub,2013-04-22 00:22:00,
2013-04-21 14:27:00,78.3,69.6,29.97,WNW,297,9.0,9.0,75,0.00,,,0.00,meteohub,2013-04-22 00:27:00,
2013-04-21 14:32:00,78.3,70.0,29.97,West,259,3.0,9.0,76,0.00,,,0.00,meteohub,2013-04-22 00:32:00,
2013-04-21 14:37:00,78.4,69.8,29.97,WNW,288,5.0,9.0,75,0.00,,,0.00,meteohub,2013-04-22 00:37:00,
2013-04-21 14:42:00,78.1,69.4,29.97,West,276,6.0,9.0,75,0.00,,,0.00,meteohub,2013-04-22 00:42:00,
2013-04-21 14:47:00,78.1,69.4,29.97,West,269,4.0,9.0,75,0.00,,,0.00,meteohub,2013-04-22 00:47:00,
2013-04-21 14:52:00,78.4,70.7,29.97,WSW,257,3.0,9.0,77,0.00,,,0.00,meteohub,2013-04-22 00:52:00,
2013-04-21 14:57:00,78.1,69.4,29.97,NW,322,4.0,11.0,75,0.00,,,0.00,meteohub,2013-04-22 00:57:00,
2013-04-21 15:02:00,78.1,70.0,29.97,WNW,301,6.0,11.0,76,0.00,,,0.00,meteohub,2013-04-22 01:02:00,
2013-04-21 15:07:00,77.7,69.6,29.97,WSW,243,4.0,11.0,76,0.00,,,0.00,meteohub,2013-04-22 01:07:00,
2013-04-21 15:12:00,77.9,70.5,29.97,NW,314,6.0,10.0,78,0.00,,,0.00,meteohub,2013-04-22 01:12:00,
2013-04-21 15:17:00,78.3,71.2,29.96,WNW,285,7.0,10.0,79,0.00,,,0.00,meteohub,2013-04-22 01:17:00,
2013-04-21 15:22:00,78.4,70.2,29.96,West,280,7.0,9.0,76,0.00,,,0.00,meteohub,2013-04-22 01:22:00,
2013-04-21 15:27:00,78.3,70.0,29.96,West,277,3.0,9.0,76,0.00,,,0.00,meteohub,2013-04-22 01:27:00,
2013-04-21 15:32:00,77.7,69.6,29.96,WNW,284,4.0,9.0,76,0.00,,,0.00,meteohub,2013-04-22 01:32:00,
2013-04-21 15:37:00,77.9,69.3,29.96,WNW,290,5.0,9.0,75,0.00,,,0.00,meteohub,2013-04-22 01:37:00,
2013-04-21 15:42:00,77.5,70.2,29.96,West,274,7.0,9.0,78,0.00,,,0.00,meteohub,2013-04-22 01:42:00,
2013-04-21 15:47:00,78.1,70.0,29.96,WNW,297,6.0,11.0,76,0.00,,,0.00,meteohub,2013-04-22 01:47:00,
2013-04-21 15:52:00,78.1,70.0,29.96,WNW,290,6.0,11.0,76,0.00,,,0.00,meteohub,2013-04-22 01:52:00,
2013-04-21 15:57:00,78.1,70.3,29.96,WNW,290,5.0,10.0,77,0.00,,,0.00,meteohub,2013-04-22 01:57:00,
2013-04-21 16:02:00,78.1,70.0,29.96,West,263,8.0,10.0,76,0.00,,,0.00,meteohub,2013-04-22 02:02:00,
2013-04-21 16:07:00,77.9,69.8,29.96,West,277,5.0,9.0,76,0.00,,,0.00,meteohub,2013-04-22 02:07:00,
2013-04-21 16:12:00,77.9,69.8,29.97,NW,304,6.0,9.0,76,0.00,,,0.00,meteohub,2013-04-22 02:12:00,
2013-04-21 16:17:00,78.1,70.3,29.96,West,263,4.0,9.0,77,0.00,,,0.00,meteohub,2013-04-22 02:17:00,
2013-04-21 16:22:00,78.1,69.4,29.96,West,271,4.0,9.0,75,0.00,,,0.00,meteohub,2013-04-22 02:22:00,
2013-04-21 16:27:00,77.7,69.6,29.96,West,263,3.0,8.0,76,0.00,,,0.00,meteohub,2013-04-22 02:27:00,
2013-04-21 16:33:00,77.5,70.2,29.97,WNW,297,5.0,8.0,78,0.00,,,0.00,meteohub,2013-04-22 02:33:00,
2013-04-21 16:38:00,77.5,70.2,29.97,West,281,4.0,8.0,78,0.00,,,0.00,meteohub,2013-04-22 02:38:00,
2013-04-21 16:43:00,77.4,69.6,29.97,West,261,4.0,8.0,77,0.00,,,0.00,meteohub,2013-04-22 02:43:00,
2013-04-21 16:48:00,77.4,69.6,29.97,WNW,286,6.0,7.0,77,0.00,,,0.00,meteohub,2013-04-22 02:48:00,
2013-04-21 16:53:00,77.2,69.8,29.97,West,273,4.0,7.0,78,0.00,,,0.00,meteohub,2013-04-22 02:53:00,
2013-04-21 16:58:00,77.2,69.8,29.97,WSW,246,6.0,8.0,78,0.00,,,0.00,meteohub,2013-04-22 02:58:00,
2013-04-21 17:03:00,77.2,69.4,29.98,West,264,4.0,8.0,77,0.00,,,0.00,meteohub,2013-04-22 03:03:00,
2013-04-21 17:08:00,77.2,70.2,29.98,WSW,248,5.0,8.0,79,0.00,,,0.00,meteohub,2013-04-22 03:08:00,
2013-04-21 17:13:00,77.2,69.8,29.98,WNW,287,5.0,7.0,78,0.00,,,0.00,meteohub,2013-04-22 03:13:00,
2013-04-21 17:18:00,77.2,69.8,29.98,West,264,4.0,7.0,78,0.00,,,0.00,meteohub,2013-04-22 03:18:00,
2013-04-21 17:23:00,77.4,70.0,29.98,NW,312,3.0,7.0,78,0.00,,,0.00,meteohub,2013-04-22 03:23:00,
2013-04-21 17:28:00,77.4,70.0,29.98,NW,315,3.0,7.0,78,0.00,,,0.00,meteohub,2013-04-22 03:28:00,
2013-04-21 17:33:00,77.7,70.3,29.98,WNW,296,2.0,8.0,78,0.00,,,0.00,meteohub,2013-04-22 03:33:00,
2013-04-21 17:38:00,77.5,69.8,29.99,WNW,284,5.0,8.0,77,0.00,,,0.00,meteohub,2013-04-22 03:38:00,
2013-04-21 17:43:00,77.4,70.0,29.99,West,277,3.0,7.0,78,0.00,,,0.00,meteohub,2013-04-22 03:43:00,
2013-04-21 17:49:00,77.2,69.8,29.99,WNW,294,5.0,7.0,78,0.00,,,0.00,meteohub,2013-04-22 03:49:00,
2013-04-21 17:54:00,77.0,69.6,29.99,WSW,257,3.0,7.0,78,0.00,,,0.00,meteohub,2013-04-22 03:54:00,
2013-04-21 17:59:00,76.8,69.8,29.99,WNW,293,6.0,8.0,79,0.00,,,0.00,meteohub,2013-04-22 03:59:00,
2013-04-21 18:01:00,76.6,69.3,30.00,WNW,295,4.0,8.0,78,0.00,,,0.00,meteohub,2013-04-22 04:01:00,
2013-04-21 18:02:00,76.6,69.6,30.00,WNW,284,3.0,8.0,79,0.00,,,0.00,meteohub,2013-04-22 04:02:00,
2013-04-21 18:05:00,76.6,69.6,30.00,WNW,295,3.0,8.0,79,0.00,,,0.00,meteohub,2013-04-22 04:05:00,
2013-04-21 18:10:00,76.5,69.4,30.00,WNW,288,3.0,7.0,79,0.00,,,0.00,meteohub,2013-04-22 04:10:00,
2013-04-21 18:16:00,76.3,69.3,30.00,WNW,283,4.0,7.0,79,0.00,,,0.00,meteohub,2013-04-22 04:16:00,
2013-04-21 18:21:00,76.1,69.4,30.00,WNW,300,6.0,7.0,80,0.00,,,0.00,meteohub,2013-04-22 04:21:00,
2013-04-21 18:26:00,75.9,69.3,30.01,WNW,285,3.0,8.0,80,0.00,,,0.00,meteohub,2013-04-22 04:26:00,
2013-04-21 18:31:00,75.9,69.6,30.01,West,281,6.0,8.0,81,0.00,,,0.00,meteohub,2013-04-22 04:31:00,
2013-04-21 18:36:00,75.7,69.1,30.01,West,274,4.0,7.0,80,0.00,,,0.00,meteohub,2013-04-22 04:36:00,
2013-04-21 18:41:00,75.7,69.1,30.01,WNW,295,4.0,8.0,80,0.00,,,0.00,meteohub,2013-04-22 04:41:00,
2013-04-21 18:46:00,75.7,69.1,30.01,NW,323,4.0,8.0,80,0.00,,,0.00,meteohub,2013-04-22 04:46:00,
2013-04-21 18:51:00,75.9,69.6,30.01,West,274,2.0,7.0,81,0.00,,,0.00,meteohub,2013-04-22 04:51:00,
2013-04-21 18:56:00,75.7,69.8,30.01,NW,308,2.0,7.0,82,0.00,,,0.00,meteohub,2013-04-22 04:56:00,
2013-04-21 19:01:00,75.6,69.6,30.01,NW,317,2.0,7.0,82,0.00,,,0.00,meteohub,2013-04-22 05:01:00,
2013-04-21 19:06:00,75.4,69.4,30.02,NW,309,3.0,6.0,82,0.00,,,0.00,meteohub,2013-04-22 05:06:00,
2013-04-21 19:11:00,75.4,69.4,30.01,NW,315,3.0,5.0,82,0.00,,,0.00,meteohub,2013-04-22 05:11:00,
2013-04-21 19:16:00,75.4,69.4,30.01,NW,311,2.0,5.0,82,0.00,,,0.00,meteohub,2013-04-22 05:16:00,
2013-04-21 19:21:00,75.2,69.3,30.02,NW,306,2.0,5.0,82,0.00,,,0.00,meteohub,2013-04-22 05:21:00,
2013-04-21 19:26:00,75.0,68.7,30.02,WNW,301,1.0,5.0,81,0.00,,,0.00,meteohub,2013-04-22 05:26:00,
2013-04-21 19:32:00,75.0,68.7,30.02,WNW,298,2.0,5.0,81,0.00,,,0.00,meteohub,2013-04-22 05:32:00,
2013-04-21 19:37:00,75.0,68.7,30.02,WNW,293,1.0,4.0,81,0.00,,,0.00,meteohub,2013-04-22 05:37:00,
2013-04-21 19:42:00,74.8,68.5,30.02,WNW,298,0.0,4.0,81,0.00,,,0.00,meteohub,2013-04-22 05:42:00,
2013-04-21 19:47:00,74.8,68.5,30.02,NW,310,0.0,3.0,81,0.00,,,0.00,meteohub,2013-04-22 05:47:00,
2013-04-21 19:52:00,74.8,68.5,30.02,NW,310,0.0,2.0,81,0.00,,,0.00,meteohub,2013-04-22 05:52:00,
2013-04-21 19:57:00,74.8,68.5,30.02,NW,310,0.0,2.0,81,0.00,,,0.00,meteohub,2013-04-22 05:57:00,
2013-04-21 20:02:00,74.8,68.5,30.02,NW,310,0.0,0.0,81,0.00,,,0.00,meteohub,2013-04-22 06:02:00,
2013-04-21 20:07:00,74.7,68.4,30.02,NW,310,0.0,0.0,81,0.00,,,0.00,meteohub,2013-04-22 06:07:00,
2013-04-21 20:12:00,74.5,68.2,30.02,NW,310,0.0,0.0,81,0.00,,,0.00,meteohub,2013-04-22 06:12:00,
2013-04-21 20:17:00,74.3,68.0,30.03,NW,311,0.0,0.0,81,0.00,,,0.00,meteohub,2013-04-22 06:17:00,
2013-04-21 20:22:00,74.3,68.0,30.03,NW,310,0.0,0.0,81,0.00,,,0.00,meteohub,2013-04-22 06:22:00,
2013-04-21 20:27:00,74.1,68.0,30.03,NNW,346,0.0,0.0,81,0.00,,,0.00,meteohub,2013-04-22 06:27:00,
2013-04-21 20:32:00,73.9,67.8,30.03,ENE,75,0.0,1.0,81,0.00,,,0.00,meteohub,2013-04-22 06:32:00,
2013-04-21 20:37:00,73.9,67.8,30.03,ENE,73,0.0,1.0,81,0.00,,,0.00,meteohub,2013-04-22 06:37:00,
2013-04-21 20:42:00,73.8,67.6,30.03,East,85,0.0,1.0,81,0.00,,,0.00,meteohub,2013-04-22 06:42:00,
2013-04-21 20:47:00,73.8,67.6,30.03,ESE,108,1.0,1.0,81,0.00,,,0.00,meteohub,2013-04-22 06:47:00,
2013-04-21 20:52:00,73.6,67.5,30.03,ESE,110,0.0,2.0,81,0.00,,,0.00,meteohub,2013-04-22 06:52:00,
2013-04-21 20:57:00,73.6,67.5,30.03,ESE,110,1.0,2.0,81,0.00,,,0.00,meteohub,2013-04-22 06:57:00,
2013-04-21 21:02:00,73.4,66.9,30.03,ESE,120,2.0,2.0,80,0.00,,,0.00,meteohub,2013-04-22 07:02:00,
2013-04-21 21:07:00,73.2,66.7,30.03,ESE,110,2.0,2.0,80,0.00,,,0.00,meteohub,2013-04-22 07:07:00,
2013-04-21 21:12:00,73.2,66.4,30.03,ESE,120,0.0,2.0,79,0.00,,,0.00,meteohub,2013-04-22 07:12:00,
2013-04-21 21:17:00,73.4,66.6,30.03,ESE,120,1.0,2.0,79,0.00,,,0.00,meteohub,2013-04-22 07:17:00,
2013-04-21 21:22:00,73.2,66.4,30.03,ESE,114,1.0,2.0,79,0.00,,,0.00,meteohub,2013-04-22 07:22:00,
2013-04-21 21:27:00,73.4,66.6,30.03,ESE,112,0.0,3.0,79,0.00,,,0.00,meteohub,2013-04-22 07:27:00,
2013-04-21 21:32:00,73.6,66.7,30.03,ESE,115,0.0,3.0,79,0.00,,,0.00,meteohub,2013-04-22 07:32:00,
2013-04-21 21:37:00,73.6,66.7,30.03,WSW,255,1.0,3.0,79,0.00,,,0.00,meteohub,2013-04-22 07:37:00,
2013-04-21 21:42:00,73.8,66.9,30.03,WSW,256,1.0,4.0,79,0.00,,,0.00,meteohub,2013-04-22 07:42:00,
2013-04-21 21:47:00,73.8,66.9,30.03,West,266,1.0,4.0,79,0.00,,,0.00,meteohub,2013-04-22 07:47:00,
2013-04-21 21:52:00,73.8,66.9,30.03,WSW,239,2.0,4.0,79,0.00,,,0.00,meteohub,2013-04-22 07:52:00,
2013-04-21 21:57:00,73.8,66.9,30.03,SW,226,2.0,4.0,79,0.00,,,0.00,meteohub,2013-04-22 07:57:00,
2013-04-21 22:02:00,73.9,67.5,30.03,SW,236,3.0,3.0,80,0.00,,,0.00,meteohub,2013-04-22 08:02:00,
2013-04-21 22:07:00,73.9,67.8,30.03,WSW,249,2.0,4.0,81,0.00,,,0.00,meteohub,2013-04-22 08:07:00,
2013-04-21 22:12:00,73.9,67.8,30.02,SSW,204,7.0,7.0,81,0.00,,,0.00,meteohub,2013-04-22 08:12:00,
2013-04-21 22:17:00,73.9,67.8,30.02,SE,145,2.0,7.0,81,0.00,,,0.00,meteohub,2013-04-22 08:17:00,
2013-04-21 22:22:00,73.9,68.2,30.03,SE,133,3.0,7.0,82,0.00,,,0.00,meteohub,2013-04-22 08:22:00,
2013-04-21 22:27:00,73.8,68.0,30.02,ESE,118,2.0,7.0,82,0.00,,,0.00,meteohub,2013-04-22 08:27:00,
2013-04-21 22:32:00,73.8,68.0,30.02,SSE,156,3.0,7.0,82,0.00,,,0.00,meteohub,2013-04-22 08:32:00,
2013-04-21 22:37:00,73.8,68.0,30.02,SE,134,1.0,6.0,82,0.00,,,0.00,meteohub,2013-04-22 08:37:00,
2013-04-21 22:42:00,73.2,66.7,30.02,ESE,121,2.0,6.0,80,0.00,,,0.00,meteohub,2013-04-22 08:42:00,
2013-04-21 22:47:00,72.9,66.0,30.02,SE,126,2.0,6.0,79,0.00,,,0.00,meteohub,2013-04-22 08:47:00,
2013-04-21 22:52:00,72.7,65.5,30.02,SE,133,0.0,6.0,78,0.00,,,0.00,meteohub,2013-04-22 08:52:00,
2013-04-21 22:57:00,72.7,65.5,30.02,ESE,110,0.0,6.0,78,0.00,,,0.00,meteohub,2013-04-22 08:57:00,
2013-04-21 23:02:00,73.0,66.2,30.03,ESE,112,2.0,3.0,79,0.00,,,0.00,meteohub,2013-04-22 09:02:00,
2013-04-21 23:07:00,72.9,64.8,30.02,ESE,113,3.0,5.0,76,0.00,,,0.00,meteohub,2013-04-22 09:07:00,
2013-04-21 23:12:00,73.2,66.0,30.02,ESE,108,0.0,5.0,78,0.00,,,0.00,meteohub,2013-04-22 09:12:00,
2013-04-21 23:17:00,73.0,64.6,30.02,East,89,2.0,4.0,75,0.00,,,0.00,meteohub,2013-04-22 09:17:00,
2013-04-21 23:22:00,72.3,63.9,30.02,ESE,108,3.0,4.0,75,0.00,,,0.00,meteohub,2013-04-22 09:22:00,
2013-04-21 23:27:00,72.0,64.0,30.02,SE,135,1.0,4.0,76,0.00,,,0.00,meteohub,2013-04-22 09:27:00,
2013-04-21 23:32:00,72.0,64.0,30.02,SE,125,2.0,4.0,76,0.00,,,0.00,meteohub,2013-04-22 09:32:00,
2013-04-21 23:37:00,72.0,64.0,30.02,SE,131,1.0,5.0,76,0.00,,,0.00,meteohub,2013-04-22 09:37:00,
2013-04-21 23:42:00,71.8,63.5,30.02,ESE,113,3.0,5.0,75,0.00,,,0.00,meteohub,2013-04-22 09:42:00,
2013-04-21 23:47:00,71.8,63.5,30.02,East,100,2.0,5.0,75,0.00,,,0.00,meteohub,2013-04-22 09:47:00,
2013-04-21 23:53:00,71.8,63.5,30.02,ESE,110,3.0,4.0,75,0.00,,,0.00,meteohub,2013-04-22 09:53:00,
2013-04-21 23:58:00,72.0,63.7,30.02,ESE,113,3.0,4.0,75,0.00,,,0.00,meteohub,2013-04-22 09:58:00,